createdAt,value
2018-11-07T00:02:19.359Z,6.80
2018-11-07T00:04:47.958Z,6.90
2018-11-07T00:07:16.621Z,6.60
2018-11-07T00:09:45.263Z,6.60
2018-11-07T00:12:13.904Z,6.60
2018-11-07T00:14:42.679Z,6.80
2018-11-07T00:17:11.406Z,6.70
2018-11-07T00:19:40.032Z,6.60
2018-11-07T00:22:08.758Z,6.40
2018-11-07T00:24:37.425Z,6.50
2018-11-07T00:27:06.143Z,6.60
2018-11-07T00:29:34.845Z,6.50
2018-11-07T00:32:03.524Z,6.50
2018-11-07T00:34:32.536Z,6.60
2018-11-07T00:37:01.169Z,6.60
2018-11-07T00:39:29.840Z,6.50
2018-11-07T00:41:58.495Z,6.50
2018-11-07T00:44:27.156Z,6.50
2018-11-07T00:46:55.876Z,6.50
2018-11-07T00:49:24.588Z,6.70
2018-11-07T00:51:53.309Z,6.60
2018-11-07T00:54:22.273Z,6.40
2018-11-07T00:56:51.046Z,6.30
2018-11-07T00:59:19.688Z,6.30
2018-11-07T01:01:48.289Z,6.50
2018-11-07T01:04:17.057Z,6.60
2018-11-07T01:06:45.805Z,6.60
2018-11-07T01:09:14.890Z,6.80
2018-11-07T01:11:43.683Z,6.90
2018-11-07T01:14:12.377Z,6.90
2018-11-07T01:16:41.078Z,7.00
2018-11-07T01:19:10.532Z,7.10
2018-11-07T01:21:39.161Z,7.00
2018-11-07T01:24:07.849Z,7.00
2018-11-07T01:26:36.538Z,6.90
2018-11-07T01:29:05.348Z,7.00
2018-11-07T01:31:34.014Z,7.00
2018-11-07T01:34:02.743Z,7.10
2018-11-07T01:36:32.267Z,7.10
2018-11-07T01:39:01.401Z,7.10
2018-11-07T01:41:30.169Z,7.00
2018-11-07T01:43:58.842Z,6.80
2018-11-07T01:46:27.858Z,6.90
2018-11-07T01:48:56.593Z,6.90
2018-11-07T01:51:25.329Z,7.00
2018-11-07T01:53:54.063Z,7.00
2018-11-07T01:56:23.330Z,7.30
2018-11-07T01:58:52.006Z,7.30
2018-11-07T02:01:20.708Z,7.30
2018-11-07T02:03:49.436Z,7.20
2018-11-07T02:06:18.148Z,7.00
2018-11-07T02:08:46.800Z,7.00
2018-11-07T02:11:15.606Z,7.00
2018-11-07T02:13:44.232Z,6.90
2018-11-07T02:16:12.923Z,6.80
2018-11-07T02:18:41.560Z,6.80
2018-11-07T02:21:10.263Z,6.50
2018-11-07T02:23:38.899Z,6.60
2018-11-07T02:26:07.645Z,6.60
2018-11-07T02:28:36.346Z,6.60
2018-11-07T02:31:05.361Z,6.50
2018-11-07T02:33:34.068Z,6.60
2018-11-07T02:36:02.816Z,6.40
2018-11-07T02:38:31.580Z,6.40
2018-11-07T02:41:00.349Z,6.50
2018-11-07T02:43:29.075Z,6.60
2018-11-07T02:45:58.047Z,6.50
2018-11-07T02:48:26.659Z,6.50
2018-11-07T02:50:55.323Z,6.50
2018-11-07T02:53:24.060Z,6.40
2018-11-07T02:55:52.711Z,6.20
2018-11-07T02:58:21.351Z,6.20
2018-11-07T03:00:50.147Z,6.10
2018-11-07T03:03:18.814Z,6.20
2018-11-07T03:05:47.476Z,6.20
2018-11-07T03:08:16.193Z,6.40
2018-11-07T03:10:45.055Z,6.40
2018-11-07T03:13:13.593Z,6.40
2018-11-07T03:15:42.275Z,6.20
2018-11-07T03:18:11.021Z,5.90
2018-11-07T03:20:39.680Z,6.00
2018-11-07T03:23:08.358Z,5.90
2018-11-07T03:25:37.039Z,5.90
2018-11-07T03:28:06.235Z,5.80
2018-11-07T03:30:53.891Z,5.90
2018-11-07T03:33:22.559Z,5.80
2018-11-07T03:35:51.287Z,5.80
2018-11-07T03:38:20.020Z,5.90
2018-11-07T03:40:48.739Z,6.00
2018-11-07T03:43:17.686Z,6.10
2018-11-07T03:45:51.910Z,6.10
2018-11-07T03:48:20.639Z,5.90
2018-11-07T03:50:49.311Z,5.80
2018-11-07T03:53:18.041Z,5.80
2018-11-07T03:55:46.647Z,5.90
2018-11-07T03:58:15.301Z,6.00
2018-11-07T04:00:43.974Z,6.00
2018-11-07T04:03:12.750Z,5.80
2018-11-07T04:05:41.443Z,5.80
2018-11-07T04:08:10.134Z,5.50
2018-11-07T04:10:38.844Z,5.60
2018-11-07T04:13:07.466Z,5.60
2018-11-07T04:15:36.150Z,5.60
2018-11-07T04:18:04.878Z,5.60
2018-11-07T04:20:33.581Z,5.70
2018-11-07T04:23:02.349Z,5.80
2018-11-07T04:25:31.026Z,5.80
2018-11-07T04:28:00.591Z,5.80
2018-11-07T04:30:29.261Z,5.90
2018-11-07T04:32:57.950Z,5.90
2018-11-07T04:35:26.599Z,5.80
2018-11-07T04:37:55.222Z,5.70
2018-11-07T04:40:23.878Z,5.80
2018-11-07T04:42:52.572Z,5.80
2018-11-07T04:45:21.242Z,5.80
2018-11-07T04:47:49.875Z,5.80
2018-11-07T04:50:18.851Z,5.80
2018-11-07T04:52:47.502Z,5.90
2018-11-07T04:55:16.238Z,5.80
2018-11-07T04:57:44.885Z,5.70
2018-11-07T05:00:13.845Z,5.90
2018-11-07T05:02:42.958Z,5.80
2018-11-07T05:05:11.755Z,5.70
2018-11-07T05:07:40.438Z,5.60
2018-11-07T05:10:17.692Z,5.60
2018-11-07T05:12:46.452Z,5.60
2018-11-07T05:15:15.352Z,5.60
2018-11-07T05:17:44.048Z,5.50
2018-11-07T05:20:12.669Z,5.50
2018-11-07T05:22:41.354Z,5.60
2018-11-07T05:25:10.933Z,5.50
2018-11-07T05:27:40.044Z,5.70
2018-11-07T05:30:10.018Z,5.50
2018-11-07T05:32:38.638Z,5.50
2018-11-07T05:35:07.983Z,5.50
2018-11-07T05:37:36.702Z,5.50
2018-11-07T05:40:05.550Z,5.30
2018-11-07T05:42:34.283Z,5.10
2018-11-07T05:45:02.965Z,5.30
2018-11-07T05:47:31.719Z,5.20
2018-11-07T05:50:00.357Z,5.20
2018-11-07T05:52:29.060Z,5.30
2018-11-07T05:54:58.657Z,5.20
2018-11-07T05:57:28.157Z,5.30
2018-11-07T05:59:56.840Z,5.20
2018-11-07T06:02:25.534Z,5.30
2018-11-07T06:04:54.646Z,5.20
2018-11-07T06:07:23.746Z,5.20
2018-11-07T06:09:57.552Z,5.00
2018-11-07T06:12:26.539Z,4.90
2018-11-07T06:14:55.515Z,5.10
2018-11-07T06:17:24.186Z,5.20
2018-11-07T06:19:52.766Z,5.20
2018-11-07T06:22:21.829Z,5.10
2018-11-07T06:24:50.529Z,5.20
2018-11-07T06:27:19.544Z,5.20
2018-11-07T06:29:48.296Z,5.10
2018-11-07T06:32:17.014Z,5.10
2018-11-07T06:34:45.845Z,5.30
2018-11-07T06:37:14.418Z,5.30
2018-11-07T06:39:43.012Z,5.30
2018-11-07T06:42:11.882Z,5.30
2018-11-07T06:44:40.830Z,5.10
2018-11-07T06:47:09.541Z,5.10
2018-11-07T06:49:38.262Z,5.10
2018-11-07T06:52:07.201Z,5.30
2018-11-07T06:54:35.901Z,5.20
2018-11-07T06:57:04.583Z,5.20
2018-11-07T06:59:33.264Z,5.20
2018-11-07T07:02:01.887Z,5.30
2018-11-07T07:04:30.486Z,5.40
2018-11-07T07:06:59.164Z,5.40
2018-11-07T07:09:28.292Z,5.50
2018-11-07T07:11:56.979Z,5.40
2018-11-07T07:14:25.699Z,5.60
2018-11-07T07:16:54.365Z,5.50
2018-11-07T07:19:23.078Z,5.60
2018-11-07T07:21:51.770Z,5.60
2018-11-07T07:24:20.897Z,5.60
2018-11-07T07:26:49.669Z,5.70
2018-11-07T07:29:18.358Z,5.70
2018-11-07T07:31:47.170Z,5.70
2018-11-07T07:34:15.861Z,5.80
2018-11-07T07:36:44.515Z,5.80
2018-11-07T07:39:13.523Z,5.80
2018-11-07T07:41:42.215Z,5.90
2018-11-07T07:44:10.956Z,6.00
2018-11-07T07:46:39.753Z,6.00
2018-11-07T07:49:08.547Z,6.00
2018-11-07T07:51:37.310Z,6.00
2018-11-07T07:54:06.264Z,6.00
2018-11-07T07:56:34.933Z,5.90
2018-11-07T07:59:04.002Z,5.90
2018-11-07T08:01:32.701Z,5.90
2018-11-07T08:04:01.411Z,6.00
2018-11-07T08:06:33.125Z,6.00
2018-11-07T08:09:01.853Z,6.00
2018-11-07T08:11:30.542Z,6.00
2018-11-07T08:13:59.244Z,6.00
2018-11-07T08:16:28.247Z,6.00
2018-11-07T08:18:57.746Z,6.10
2018-11-07T08:21:26.490Z,6.10
2018-11-07T08:23:55.119Z,6.10
2018-11-07T08:26:23.775Z,6.30
2018-11-07T08:28:52.457Z,6.30
2018-11-07T08:31:21.444Z,6.30
2018-11-07T08:33:50.170Z,6.40
2018-11-07T08:36:19.507Z,6.50
2018-11-07T08:38:49.289Z,6.60
2018-11-07T08:41:18.011Z,6.70
2018-11-07T08:43:46.687Z,6.90
2018-11-07T08:46:15.594Z,6.90
2018-11-07T08:48:44.562Z,7.00
2018-11-07T08:51:13.301Z,7.00
2018-11-07T08:53:41.954Z,7.00
2018-11-07T08:56:11.084Z,7.10
2018-11-07T08:58:40.153Z,7.10
2018-11-07T09:01:10.358Z,7.30
2018-11-07T09:03:39.291Z,7.50
2018-11-07T09:06:08.569Z,7.60
2018-11-07T09:08:37.252Z,7.60
2018-11-07T09:11:06.394Z,7.90
2018-11-07T09:13:35.629Z,8.00
2018-11-07T09:16:04.809Z,8.00
2018-11-07T09:18:34.030Z,8.10
2018-11-07T09:21:02.806Z,8.30
2018-11-07T09:23:31.545Z,8.50
2018-11-07T09:26:00.272Z,8.60
2018-11-07T09:28:29.103Z,8.90
2018-11-07T09:30:58.087Z,9.00
2018-11-07T09:33:26.879Z,9.20
2018-11-07T09:35:55.861Z,9.30
2018-11-07T09:38:24.614Z,9.50
2018-11-07T09:40:53.524Z,9.50
2018-11-07T09:43:22.199Z,9.50
2018-11-07T09:45:51.250Z,9.80
2018-11-07T09:48:20.445Z,9.90
2018-11-07T09:50:49.119Z,10.10
2018-11-07T09:53:17.871Z,10.20
2018-11-07T09:55:46.564Z,10.30
2018-11-07T09:58:15.573Z,10.40
2018-11-07T10:00:57.753Z,10.70
2018-11-07T10:03:26.723Z,10.80
2018-11-07T10:05:55.698Z,11.20
2018-11-07T10:08:24.747Z,11.20
2018-11-07T10:10:53.801Z,11.40
2018-11-07T10:13:22.436Z,11.60
2018-11-07T10:15:51.241Z,11.70
2018-11-07T10:18:20.973Z,12.00
2018-11-07T10:20:50.141Z,12.10
2018-11-07T10:23:18.789Z,12.20
2018-11-07T10:25:47.451Z,12.10
2018-11-07T10:28:16.260Z,12.10
2018-11-07T10:30:45.097Z,12.20
2018-11-07T10:33:14.139Z,12.40
2018-11-07T10:35:42.766Z,12.40
2018-11-07T10:38:12.102Z,12.70
2018-11-07T10:40:40.855Z,13.00
2018-11-07T10:43:09.826Z,13.00
2018-11-07T10:45:45.404Z,12.90
2018-11-07T10:48:14.104Z,13.00
2018-11-07T10:50:43.146Z,13.10
2018-11-07T10:53:12.342Z,13.20
2018-11-07T10:55:41.108Z,13.30
2018-11-07T10:58:09.800Z,13.20
2018-11-07T11:00:43.990Z,13.00
2018-11-07T11:03:18.166Z,12.80
2018-11-07T11:05:46.843Z,12.80
2018-11-07T11:08:15.808Z,12.70
2018-11-07T11:10:44.610Z,12.60
2018-11-07T11:13:13.979Z,12.70
2018-11-07T11:15:42.712Z,13.00
2018-11-07T11:18:11.458Z,12.90
2018-11-07T11:20:40.092Z,12.90
2018-11-07T11:23:08.835Z,13.00
2018-11-07T11:25:37.573Z,13.50
2018-11-07T11:28:06.707Z,14.10
2018-11-07T11:30:35.474Z,14.30
2018-11-07T11:33:04.326Z,14.50
2018-11-07T11:35:33.003Z,14.50
2018-11-07T11:38:01.921Z,14.70
2018-11-07T11:40:30.616Z,14.80
2018-11-07T11:42:59.357Z,15.30
2018-11-07T11:45:28.772Z,15.80
2018-11-07T11:47:57.475Z,15.50
2018-11-07T11:50:26.504Z,15.20
2018-11-07T11:52:55.535Z,15.10
2018-11-07T11:55:24.271Z,15.00
2018-11-07T11:57:53.060Z,15.00
2018-11-07T12:00:22.962Z,15.00
2018-11-07T12:02:51.744Z,15.10
2018-11-07T12:05:21.316Z,15.10
2018-11-07T12:07:50.011Z,15.10
2018-11-07T12:10:21.928Z,15.30
2018-11-07T12:12:51.934Z,15.60
2018-11-07T12:15:22.043Z,15.80
2018-11-07T12:17:51.083Z,16.20
2018-11-07T12:20:19.943Z,16.50
2018-11-07T12:22:48.639Z,16.70
2018-11-07T12:25:18.276Z,16.90
2018-11-07T12:27:47.267Z,17.10
2018-11-07T12:30:21.730Z,17.20
2018-11-07T12:32:51.739Z,17.20
2018-11-07T12:35:21.025Z,17.30
2018-11-07T12:37:49.897Z,17.40
2018-11-07T12:40:19.145Z,17.40
2018-11-07T12:42:48.007Z,17.40
2018-11-07T12:45:18.292Z,17.40
2018-11-07T12:47:47.000Z,17.50
2018-11-07T12:50:24.726Z,17.30
2018-11-07T12:52:53.487Z,17.40
2018-11-07T12:55:22.918Z,17.50
2018-11-07T12:57:52.192Z,17.60
2018-11-07T13:00:27.429Z,17.50
2018-11-07T13:02:56.178Z,17.40
2018-11-07T13:05:26.049Z,17.60
2018-11-07T13:07:55.956Z,17.90
2018-11-07T13:10:24.897Z,17.70
2018-11-07T13:12:54.018Z,17.80
2018-11-07T13:15:22.766Z,17.70
2018-11-07T13:17:52.354Z,17.70
2018-11-07T13:20:22.809Z,17.90
2018-11-07T13:22:52.441Z,17.90
2018-11-07T13:25:21.578Z,17.70
2018-11-07T13:27:50.270Z,17.50
2018-11-07T13:30:20.249Z,17.40
2018-11-07T13:32:49.350Z,17.50
2018-11-07T13:35:18.820Z,17.20
2018-11-07T13:37:48.466Z,17.20
2018-11-07T13:40:20.381Z,17.00
2018-11-07T13:42:49.185Z,17.10
2018-11-07T13:45:19.294Z,17.00
2018-11-07T13:47:49.212Z,17.10
2018-11-07T13:50:18.397Z,17.00
2018-11-07T13:52:47.148Z,17.20
2018-11-07T13:55:16.227Z,17.00
2018-11-07T13:57:45.323Z,17.10
2018-11-07T14:00:21.346Z,17.00
2018-11-07T14:02:50.822Z,16.90
2018-11-07T14:05:19.778Z,16.90
2018-11-07T14:07:48.667Z,17.00
2018-11-07T14:10:24.651Z,16.80
2018-11-07T14:12:54.108Z,16.70
2018-11-07T14:15:23.112Z,16.50
2018-11-07T14:17:52.284Z,16.50
2018-11-07T14:20:21.269Z,16.40
2018-11-07T14:22:50.087Z,16.30
2018-11-07T14:25:18.949Z,16.30
2018-11-07T14:27:48.304Z,16.20
2018-11-07T14:30:18.490Z,16.20
2018-11-07T14:32:54.314Z,16.10
2018-11-07T14:35:23.196Z,16.00
2018-11-07T14:37:52.658Z,15.90
2018-11-07T14:40:21.778Z,15.80
2018-11-07T14:42:51.192Z,15.70
2018-11-07T14:45:20.264Z,15.70
2018-11-07T14:47:49.121Z,15.60
2018-11-07T14:50:17.805Z,15.60
2018-11-07T14:52:47.074Z,15.60
2018-11-07T14:55:16.283Z,15.50
2018-11-07T14:57:45.130Z,15.50
2018-11-07T15:00:15.739Z,15.40
2018-11-07T15:02:45.050Z,15.40
2018-11-07T15:05:14.864Z,15.30
2018-11-07T15:07:44.241Z,15.20
2018-11-07T15:10:13.936Z,15.00
2018-11-07T15:12:42.651Z,14.90
2018-11-07T15:15:14.982Z,14.80
2018-11-07T15:17:44.101Z,14.70
2018-11-07T15:20:13.976Z,14.50
2018-11-07T15:22:43.406Z,14.40
2018-11-07T15:25:13.872Z,14.30
2018-11-07T15:27:44.384Z,14.10
2018-11-07T15:30:15.152Z,14.00
2018-11-07T15:32:45.069Z,13.90
2018-11-07T15:35:14.925Z,13.70
2018-11-07T15:37:44.264Z,13.50
2018-11-07T15:40:14.990Z,13.40
2018-11-07T15:42:44.970Z,13.30
2018-11-07T15:45:16.233Z,13.20
2018-11-07T15:47:45.059Z,13.10
2018-11-07T15:50:19.660Z,13.10
2018-11-07T15:52:49.409Z,13.20
2018-11-07T15:55:18.838Z,13.10
2018-11-07T15:57:47.849Z,13.00
2018-11-07T16:00:18.194Z,13.00
2018-11-07T16:02:46.986Z,13.00
2018-11-07T16:05:16.642Z,12.80
2018-11-07T16:07:45.951Z,12.70
2018-11-07T16:10:16.018Z,12.70
2018-11-07T16:12:44.968Z,12.60
2018-11-07T16:15:15.601Z,12.50
2018-11-07T16:17:44.816Z,12.50
2018-11-07T16:20:20.209Z,12.40
2018-11-07T16:22:49.843Z,12.30
2018-11-07T16:25:18.893Z,12.10
2018-11-07T16:27:48.268Z,12.00
2018-11-07T16:30:19.038Z,11.80
2018-11-07T16:32:47.830Z,11.80
2018-11-07T16:35:16.991Z,11.80
2018-11-07T16:37:46.220Z,11.80
2018-11-07T16:40:16.612Z,11.70
2018-11-07T16:42:46.124Z,11.60
2018-11-07T16:45:16.390Z,11.40
2018-11-07T16:47:45.592Z,11.40
2018-11-07T16:50:15.709Z,11.40
2018-11-07T16:52:45.012Z,11.40
2018-11-07T16:55:14.202Z,11.40
2018-11-07T16:57:43.225Z,11.40
2018-11-07T17:00:13.978Z,11.20
2018-11-07T17:02:43.691Z,11.10
2018-11-07T17:05:13.463Z,11.00
2018-11-07T17:07:42.902Z,11.00
2018-11-07T17:10:12.657Z,10.80
2018-11-07T17:12:41.542Z,10.70
2018-11-07T17:15:10.937Z,10.60
2018-11-07T17:17:39.746Z,10.40
2018-11-07T17:20:10.869Z,10.40
2018-11-07T17:22:40.989Z,10.30
2018-11-07T17:25:12.276Z,10.40
2018-11-07T17:27:42.141Z,10.40
2018-11-07T17:30:12.391Z,10.40
2018-11-07T17:32:41.399Z,10.10
2018-11-07T17:35:12.414Z,10.10
2018-11-07T17:37:42.241Z,10.10
2018-11-07T17:40:16.739Z,10.30
2018-11-07T17:42:46.068Z,10.30
2018-11-07T17:45:16.633Z,10.10
2018-11-07T17:47:45.880Z,10.20
2018-11-07T17:50:16.045Z,10.10
2018-11-07T17:52:45.115Z,9.90
2018-11-07T17:55:15.448Z,9.90
2018-11-07T17:57:44.640Z,9.90
2018-11-07T18:00:15.680Z,10.10
2018-11-07T18:02:44.858Z,10.20
2018-11-07T18:05:13.648Z,10.20
2018-11-07T18:07:42.720Z,10.10
2018-11-07T18:10:13.105Z,10.10
2018-11-07T18:12:42.152Z,10.10
2018-11-07T18:15:11.315Z,10.10
2018-11-07T18:17:40.207Z,10.10
2018-11-07T18:20:10.759Z,10.10
2018-11-07T18:22:39.708Z,9.90
2018-11-07T18:25:09.791Z,9.90
2018-11-07T18:27:39.586Z,10.00
2018-11-07T18:30:10.040Z,10.10
2018-11-07T18:32:39.580Z,10.30
2018-11-07T18:35:10.062Z,10.30
2018-11-07T18:37:38.935Z,10.40
2018-11-07T18:40:10.770Z,10.30
2018-11-07T18:42:40.383Z,10.30
2018-11-07T18:45:10.518Z,10.30
2018-11-07T18:47:40.694Z,10.20
2018-11-07T18:50:11.339Z,10.20
2018-11-07T18:52:40.305Z,10.30
2018-11-07T18:55:11.067Z,10.30
2018-11-07T18:57:40.229Z,10.20
2018-11-07T19:00:15.037Z,10.20
2018-11-07T19:02:44.626Z,10.30
2018-11-07T19:05:13.938Z,10.40
2018-11-07T19:07:43.064Z,10.40
2018-11-07T19:10:15.182Z,10.50
2018-11-07T19:12:44.814Z,10.40
2018-11-07T19:15:14.547Z,10.40
2018-11-07T19:17:44.455Z,10.30
2018-11-07T19:20:14.191Z,10.30
2018-11-07T19:22:42.986Z,10.30
2018-11-07T19:25:14.701Z,10.30
2018-11-07T19:27:43.562Z,10.30
2018-11-07T19:30:15.456Z,10.10
2018-11-07T19:32:45.760Z,10.10
2018-11-07T19:35:15.573Z,10.10
2018-11-07T19:37:45.146Z,10.10
2018-11-07T19:40:15.654Z,10.00
2018-11-07T19:42:44.871Z,10.10
2018-11-07T19:45:17.796Z,10.10
2018-11-07T19:47:47.107Z,10.10
2018-11-07T19:50:17.538Z,10.00
2018-11-07T19:52:47.693Z,10.00
2018-11-07T19:55:19.571Z,10.10
2018-11-07T19:57:54.083Z,9.80
2018-11-07T20:00:24.869Z,9.80
2018-11-07T20:02:53.751Z,9.80
2018-11-07T20:05:22.394Z,9.90
2018-11-07T20:07:51.628Z,10.00
2018-11-07T20:10:21.195Z,10.00
2018-11-07T20:12:49.891Z,9.80
2018-11-07T20:15:19.827Z,9.70
2018-11-07T20:17:49.277Z,9.50
2018-11-07T20:20:18.541Z,9.50
2018-11-07T20:22:47.681Z,9.60
2018-11-07T20:25:17.118Z,9.70
2018-11-07T20:27:46.118Z,9.70
2018-11-07T20:30:16.360Z,9.70
2018-11-07T20:32:45.793Z,9.80
2018-11-07T20:35:16.247Z,9.80
2018-11-07T20:37:45.020Z,9.80
2018-11-07T20:40:15.968Z,9.80
2018-11-07T20:42:44.760Z,9.80
2018-11-07T20:45:14.897Z,9.80
2018-11-07T20:47:44.301Z,9.70
2018-11-07T20:50:15.972Z,9.60
2018-11-07T20:52:45.908Z,9.70
2018-11-07T20:55:15.636Z,9.70
2018-11-07T20:57:44.415Z,9.60
2018-11-07T21:00:20.468Z,9.60
2018-11-07T21:02:50.030Z,9.60
2018-11-07T21:05:18.755Z,9.60
2018-11-07T21:07:48.224Z,9.60
2018-11-07T21:10:19.187Z,9.60
2018-11-07T21:12:48.416Z,9.60
2018-11-07T21:15:18.138Z,9.60
2018-11-07T21:17:47.141Z,9.60
2018-11-07T21:20:15.956Z,9.60
2018-11-07T21:22:44.769Z,9.70
2018-11-07T21:25:13.844Z,9.50
2018-11-07T21:27:44.143Z,9.70
2018-11-07T21:30:14.075Z,9.80
2018-11-07T21:32:43.455Z,9.70
2018-11-07T21:35:12.552Z,9.60
2018-11-07T21:37:41.583Z,9.70
2018-11-07T21:40:13.265Z,9.60
2018-11-07T21:42:42.350Z,9.60
2018-11-07T21:45:13.012Z,9.50
2018-11-07T21:47:42.344Z,9.50
2018-11-07T21:50:12.495Z,9.50
2018-11-07T21:52:41.366Z,9.40
2018-11-07T21:55:10.196Z,9.40
2018-11-07T21:57:39.333Z,9.40
2018-11-07T22:00:16.733Z,9.40
2018-11-07T22:02:46.189Z,9.30
2018-11-07T22:05:15.824Z,9.30
2018-11-07T22:07:44.588Z,9.30
2018-11-07T22:10:14.412Z,9.30
2018-11-07T22:12:43.135Z,9.30
2018-11-07T22:15:11.932Z,9.30
2018-11-07T22:17:40.879Z,9.30
2018-11-07T22:20:13.537Z,9.20
2018-11-07T22:22:42.477Z,9.30
2018-11-07T22:25:11.176Z,9.30
2018-11-07T22:27:40.483Z,9.30
2018-11-07T22:30:10.948Z,9.30
2018-11-07T22:32:40.217Z,9.40
2018-11-07T22:35:11.194Z,9.30
2018-11-07T22:37:40.040Z,9.40
2018-11-07T22:40:10.553Z,9.30
2018-11-07T22:42:39.511Z,9.20
2018-11-07T22:45:09.130Z,9.30
2018-11-07T22:47:38.430Z,9.30
2018-11-07T22:50:08.424Z,9.20
2018-11-07T22:52:37.173Z,9.20
2018-11-07T22:55:07.032Z,9.30
2018-11-07T22:57:35.634Z,9.20
2018-11-07T23:00:06.339Z,9.30
2018-11-07T23:02:35.187Z,9.20
2018-11-07T23:05:04.655Z,9.30
2018-11-07T23:07:33.423Z,9.20
2018-11-07T23:10:02.613Z,9.20
2018-11-07T23:12:31.327Z,9.20
2018-11-07T23:15:00.122Z,9.10
2018-11-07T23:17:28.805Z,9.10
2018-11-07T23:19:57.522Z,9.10
2018-11-07T23:22:26.203Z,9.10
2018-11-07T23:24:54.977Z,9.10
2018-11-07T23:27:24.644Z,9.20
2018-11-07T23:29:53.285Z,9.10
2018-11-07T23:32:21.975Z,9.10
2018-11-07T23:34:50.647Z,9.20
2018-11-07T23:37:19.336Z,9.10
2018-11-07T23:39:47.946Z,9.20
2018-11-07T23:42:16.690Z,9.10
2018-11-07T23:44:45.444Z,9.10
2018-11-07T23:47:14.205Z,9.10
2018-11-07T23:49:42.986Z,9.00
2018-11-07T23:52:13.773Z,9.10
2018-11-07T23:54:42.882Z,9.10
2018-11-07T23:57:11.627Z,9.10
2018-11-07T23:59:40.300Z,9.10
